sensor_id;sensor_type;location;lat;lon;timestamp;P1;durP1;ratioP1;P2;durP2;ratioP2
49460;SDS011;35355;49.198;-0.368;2023-10-19T00:01:06;19.13;;;1.80;;
49460;SDS011;35355;49.198;-0.368;2023-10-19T00:03:35;10.52;;;1.27;;
49460;SDS011;35355;49.198;-0.368;2023-10-19T00:06:01;15.73;;;1.40;;
49460;SDS011;35355;49.198;-0.368;2023-10-19T00:08:26;16.17;;;1.90;;
49460;SDS011;35355;49.198;-0.368;2023-10-19T00:11:01;9.85;;;1.95;;
49460;SDS011;35355;49.198;-0.368;2023-10-19T00:13:29;14.82;;;1.55;;
49460;SDS011;35355;49.198;-0.368;2023-10-19T00:15:55;15.25;;;1.77;;
49460;SDS011;35355;49.198;-0.368;2023-10-19T00:18:22;14.85;;;1.70;;
49460;SDS011;35355;49.198;-0.368;2023-10-19T00:20:50;14.27;;;2.53;;
49460;SDS011;35355;49.198;-0.368;2023-10-19T00:23:23;16.85;;;2.33;;
49460;SDS011;35355;49.198;-0.368;2023-10-19T00:25:58;9.13;;;1.60;;
49460;SDS011;35355;49.198;-0.368;2023-10-19T00:28:26;12.68;;;2.67;;
49460;SDS011;35355;49.198;-0.368;2023-10-19T00:30:54;16.60;;;2.30;;
49460;SDS011;35355;49.198;-0.368;2023-10-19T00:33:28;18.00;;;2.15;;
49460;SDS011;35355;49.198;-0.368;2023-10-19T00:35:59;18.63;;;2.42;;
49460;SDS011;35355;49.198;-0.368;2023-10-19T00:38:38;27.58;;;3.72;;
49460;SDS011;35355;49.198;-0.368;2023-10-19T00:41:07;17.88;;;2.90;;
49460;SDS011;35355;49.198;-0.368;2023-10-19T00:43:39;16.60;;;2.20;;
49460;SDS011;35355;49.198;-0.368;2023-10-19T00:46:10;21.13;;;2.65;;
49460;SDS011;35355;49.198;-0.368;2023-10-19T00:48:52;22.40;;;2.95;;
49460;SDS011;35355;49.198;-0.368;2023-10-19T00:51:20;17.95;;;3.28;;
49460;SDS011;35355;49.198;-0.368;2023-10-19T00:53:56;22.80;;;2.65;;
49460;SDS011;35355;49.198;-0.368;2023-10-19T00:56:51;19.40;;;2.55;;
49460;SDS011;35355;49.198;-0.368;2023-10-19T00:59:19;28.42;;;3.03;;
49460;SDS011;35355;49.198;-0.368;2023-10-19T01:01:52;20.63;;;3.40;;
49460;SDS011;35355;49.198;-0.368;2023-10-19T01:04:40;16.20;;;2.45;;
49460;SDS011;35355;49.198;-0.368;2023-10-19T01:07:08;29.42;;;3.20;;
49460;SDS011;35355;49.198;-0.368;2023-10-19T01:09:46;24.10;;;3.83;;
49460;SDS011;35355;49.198;-0.368;2023-10-19T01:12:12;22.45;;;2.80;;
49460;SDS011;35355;49.198;-0.368;2023-10-19T01:14:59;13.75;;;2.55;;
49460;SDS011;35355;49.198;-0.368;2023-10-19T01:17:39;35.60;;;3.42;;
49460;SDS011;35355;49.198;-0.368;2023-10-19T01:20:08;16.15;;;2.65;;
49460;SDS011;35355;49.198;-0.368;2023-10-19T01:23:01;17.65;;;3.03;;
49460;SDS011;35355;49.198;-0.368;2023-10-19T01:25:32;25.08;;;4.65;;
49460;SDS011;35355;49.198;-0.368;2023-10-19T01:28:15;18.73;;;3.08;;
49460;SDS011;35355;49.198;-0.368;2023-10-19T01:30:44;25.33;;;4.05;;
49460;SDS011;35355;49.198;-0.368;2023-10-19T01:33:10;19.30;;;2.40;;
49460;SDS011;35355;49.198;-0.368;2023-10-19T01:35:41;31.23;;;3.28;;
49460;SDS011;35355;49.198;-0.368;2023-10-19T01:38:26;19.02;;;2.58;;
49460;SDS011;35355;49.198;-0.368;2023-10-19T01:40:55;28.15;;;3.35;;
49460;SDS011;35355;49.198;-0.368;2023-10-19T01:43:24;23.98;;;3.05;;
49460;SDS011;35355;49.198;-0.368;2023-10-19T01:45:53;24.13;;;2.92;;
49460;SDS011;35355;49.198;-0.368;2023-10-19T01:48:30;23.75;;;3.15;;
49460;SDS011;35355;49.198;-0.368;2023-10-19T01:50:59;18.00;;;3.65;;
49460;SDS011;35355;49.198;-0.368;2023-10-19T01:53:26;18.25;;;2.63;;
49460;SDS011;35355;49.198;-0.368;2023-10-19T01:55:59;19.52;;;2.67;;
49460;SDS011;35355;49.198;-0.368;2023-10-19T01:58:25;29.00;;;3.42;;
49460;SDS011;35355;49.198;-0.368;2023-10-19T02:00:51;20.70;;;2.75;;
49460;SDS011;35355;49.198;-0.368;2023-10-19T02:03:25;16.52;;;2.38;;
49460;SDS011;35355;49.198;-0.368;2023-10-19T02:05:59;22.85;;;3.53;;
49460;SDS011;35355;49.198;-0.368;2023-10-19T02:08:25;24.77;;;2.70;;
49460;SDS011;35355;49.198;-0.368;2023-10-19T02:10:55;28.35;;;3.70;;
49460;SDS011;35355;49.198;-0.368;2023-10-19T02:13:20;22.92;;;2.85;;
49460;SDS011;35355;49.198;-0.368;2023-10-19T02:15:46;23.88;;;2.42;;
49460;SDS011;35355;49.198;-0.368;2023-10-19T02:18:11;28.60;;;3.35;;
49460;SDS011;35355;49.198;-0.368;2023-10-19T02:20:39;26.77;;;2.95;;
49460;SDS011;35355;49.198;-0.368;2023-10-19T02:23:07;23.25;;;2.85;;
49460;SDS011;35355;49.198;-0.368;2023-10-19T02:25:33;22.50;;;2.95;;
49460;SDS011;35355;49.198;-0.368;2023-10-19T02:28:05;31.05;;;3.28;;
49460;SDS011;35355;49.198;-0.368;2023-10-19T02:30:34;20.02;;;2.65;;
49460;SDS011;35355;49.198;-0.368;2023-10-19T02:33:00;30.67;;;4.28;;
49460;SDS011;35355;49.198;-0.368;2023-10-19T02:35:28;18.52;;;3.25;;
49460;SDS011;35355;49.198;-0.368;2023-10-19T02:37:54;23.92;;;3.53;;
49460;SDS011;35355;49.198;-0.368;2023-10-19T02:40:19;20.33;;;3.63;;
49460;SDS011;35355;49.198;-0.368;2023-10-19T02:42:47;24.63;;;3.22;;
49460;SDS011;35355;49.198;-0.368;2023-10-19T02:45:17;18.92;;;4.18;;
49460;SDS011;35355;49.198;-0.368;2023-10-19T02:47:46;17.23;;;2.55;;
49460;SDS011;35355;49.198;-0.368;2023-10-19T02:50:11;20.15;;;2.80;;
49460;SDS011;35355;49.198;-0.368;2023-10-19T02:52:47;24.63;;;2.80;;
49460;SDS011;35355;49.198;-0.368;2023-10-19T02:55:14;20.70;;;2.55;;
49460;SDS011;35355;49.198;-0.368;2023-10-19T02:57:42;18.10;;;4.20;;
49460;SDS011;35355;49.198;-0.368;2023-10-19T03:00:12;20.88;;;2.83;;
49460;SDS011;35355;49.198;-0.368;2023-10-19T03:02:39;18.23;;;2.72;;
49460;SDS011;35355;49.198;-0.368;2023-10-19T03:05:06;27.05;;;3.97;;
49460;SDS011;35355;49.198;-0.368;2023-10-19T03:07:40;16.63;;;2.65;;
49460;SDS011;35355;49.198;-0.368;2023-10-19T03:10:08;17.15;;;2.35;;
49460;SDS011;35355;49.198;-0.368;2023-10-19T03:12:48;18.20;;;2.53;;
49460;SDS011;35355;49.198;-0.368;2023-10-19T03:15:15;19.23;;;2.55;;
49460;SDS011;35355;49.198;-0.368;2023-10-19T03:17:41;17.42;;;2.60;;
49460;SDS011;35355;49.198;-0.368;2023-10-19T03:20:07;18.35;;;2.90;;
49460;SDS011;35355;49.198;-0.368;2023-10-19T03:22:38;25.45;;;3.35;;
49460;SDS011;35355;49.198;-0.368;2023-10-19T03:25:05;21.77;;;2.60;;
49460;SDS011;35355;49.198;-0.368;2023-10-19T03:27:50;22.38;;;3.25;;
49460;SDS011;35355;49.198;-0.368;2023-10-19T03:30:16;24.08;;;3.53;;
49460;SDS011;35355;49.198;-0.368;2023-10-19T03:32:44;21.20;;;3.13;;
49460;SDS011;35355;49.198;-0.368;2023-10-19T03:35:10;16.88;;;1.73;;
49460;SDS011;35355;49.198;-0.368;2023-10-19T03:37:40;17.75;;;2.47;;
49460;SDS011;35355;49.198;-0.368;2023-10-19T03:40:06;16.95;;;2.80;;
49460;SDS011;35355;49.198;-0.368;2023-10-19T03:42:34;14.65;;;2.00;;
49460;SDS011;35355;49.198;-0.368;2023-10-19T03:45:06;23.40;;;3.78;;
49460;SDS011;35355;49.198;-0.368;2023-10-19T03:47:38;20.03;;;3.63;;
49460;SDS011;35355;49.198;-0.368;2023-10-19T03:50:04;18.27;;;1.88;;
49460;SDS011;35355;49.198;-0.368;2023-10-19T03:52:39;19.00;;;2.00;;
49460;SDS011;35355;49.198;-0.368;2023-10-19T03:55:04;15.90;;;2.20;;
49460;SDS011;35355;49.198;-0.368;2023-10-19T03:57:36;11.65;;;1.95;;
49460;SDS011;35355;49.198;-0.368;2023-10-19T04:00:06;12.00;;;1.70;;
49460;SDS011;35355;49.198;-0.368;2023-10-19T04:02:36;18.35;;;2.15;;
49460;SDS011;35355;49.198;-0.368;2023-10-19T04:05:03;12.13;;;2.05;;
49460;SDS011;35355;49.198;-0.368;2023-10-19T04:07:29;12.50;;;1.45;;
49460;SDS011;35355;49.198;-0.368;2023-10-19T04:09:56;16.45;;;2.85;;
49460;SDS011;35355;49.198;-0.368;2023-10-19T04:12:39;12.77;;;1.77;;
49460;SDS011;35355;49.198;-0.368;2023-10-19T04:15:07;10.38;;;1.45;;
49460;SDS011;35355;49.198;-0.368;2023-10-19T04:17:41;13.77;;;2.05;;
49460;SDS011;35355;49.198;-0.368;2023-10-19T04:20:11;10.60;;;1.92;;
49460;SDS011;35355;49.198;-0.368;2023-10-19T04:22:43;12.25;;;1.60;;
49460;SDS011;35355;49.198;-0.368;2023-10-19T04:25:09;12.98;;;1.65;;
49460;SDS011;35355;49.198;-0.368;2023-10-19T04:27:40;11.80;;;1.42;;
49460;SDS011;35355;49.198;-0.368;2023-10-19T04:30:07;9.35;;;1.50;;
49460;SDS011;35355;49.198;-0.368;2023-10-19T04:35:06;11.75;;;1.70;;
49460;SDS011;35355;49.198;-0.368;2023-10-19T04:37:33;13.48;;;1.85;;
49460;SDS011;35355;49.198;-0.368;2023-10-19T04:39:58;14.73;;;2.08;;
49460;SDS011;35355;49.198;-0.368;2023-10-19T04:42:26;14.85;;;1.48;;
49460;SDS011;35355;49.198;-0.368;2023-10-19T04:44:52;10.48;;;1.20;;
49460;SDS011;35355;49.198;-0.368;2023-10-19T04:47:19;9.98;;;1.85;;
49460;SDS011;35355;49.198;-0.368;2023-10-19T04:49:44;14.05;;;1.75;;
49460;SDS011;35355;49.198;-0.368;2023-10-19T04:52:13;10.43;;;1.90;;
49460;SDS011;35355;49.198;-0.368;2023-10-19T04:54:38;8.73;;;1.33;;
49460;SDS011;35355;49.198;-0.368;2023-10-19T04:57:04;14.02;;;2.25;;
49460;SDS011;35355;49.198;-0.368;2023-10-19T04:59:30;9.43;;;2.00;;
49460;SDS011;35355;49.198;-0.368;2023-10-19T05:01:58;9.98;;;2.10;;
49460;SDS011;35355;49.198;-0.368;2023-10-19T05:04:26;13.25;;;1.73;;
49460;SDS011;35355;49.198;-0.368;2023-10-19T05:06:52;7.07;;;1.90;;
49460;SDS011;35355;49.198;-0.368;2023-10-19T05:09:18;12.45;;;2.00;;
49460;SDS011;35355;49.198;-0.368;2023-10-19T05:11:43;8.30;;;2.20;;
49460;SDS011;35355;49.198;-0.368;2023-10-19T05:14:11;11.63;;;1.70;;
49460;SDS011;35355;49.198;-0.368;2023-10-19T05:16:38;13.50;;;1.70;;
49460;SDS011;35355;49.198;-0.368;2023-10-19T05:19:04;10.68;;;1.90;;
49460;SDS011;35355;49.198;-0.368;2023-10-19T05:21:30;12.63;;;2.75;;
49460;SDS011;35355;49.198;-0.368;2023-10-19T05:23:55;8.00;;;1.83;;
49460;SDS011;35355;49.198;-0.368;2023-10-19T05:26:23;14.82;;;2.92;;
49460;SDS011;35355;49.198;-0.368;2023-10-19T05:28:49;11.55;;;2.15;;
49460;SDS011;35355;49.198;-0.368;2023-10-19T05:31:14;15.75;;;2.13;;
49460;SDS011;35355;49.198;-0.368;2023-10-19T05:33:40;13.18;;;1.63;;
49460;SDS011;35355;49.198;-0.368;2023-10-19T05:36:06;14.40;;;1.70;;
49460;SDS011;35355;49.198;-0.368;2023-10-19T05:38:31;9.70;;;1.73;;
49460;SDS011;35355;49.198;-0.368;2023-10-19T05:40:57;7.95;;;1.33;;
49460;SDS011;35355;49.198;-0.368;2023-10-19T05:43:24;5.50;;;1.17;;
49460;SDS011;35355;49.198;-0.368;2023-10-19T05:45:50;14.15;;;1.45;;
49460;SDS011;35355;49.198;-0.368;2023-10-19T05:48:16;7.15;;;0.57;;
49460;SDS011;35355;49.198;-0.368;2023-10-19T05:50:42;7.07;;;1.13;;
49460;SDS011;35355;49.198;-0.368;2023-10-19T05:53:08;9.15;;;1.20;;
49460;SDS011;35355;49.198;-0.368;2023-10-19T05:55:33;14.30;;;1.10;;
49460;SDS011;35355;49.198;-0.368;2023-10-19T05:58:00;6.72;;;0.93;;
49460;SDS011;35355;49.198;-0.368;2023-10-19T06:00:26;6.07;;;1.63;;
49460;SDS011;35355;49.198;-0.368;2023-10-19T06:02:52;7.30;;;1.38;;
49460;SDS011;35355;49.198;-0.368;2023-10-19T06:05:18;6.40;;;0.75;;
49460;SDS011;35355;49.198;-0.368;2023-10-19T06:07:45;8.88;;;1.08;;
49460;SDS011;35355;49.198;-0.368;2023-10-19T06:10:13;5.00;;;0.80;;
49460;SDS011;35355;49.198;-0.368;2023-10-19T06:12:42;4.88;;;0.70;;
49460;SDS011;35355;49.198;-0.368;2023-10-19T06:15:09;6.93;;;0.73;;
49460;SDS011;35355;49.198;-0.368;2023-10-19T06:17:39;4.28;;;0.40;;
49460;SDS011;35355;49.198;-0.368;2023-10-19T06:20:06;1.80;;;0.38;;
49460;SDS011;35355;49.198;-0.368;2023-10-19T06:22:44;5.97;;;0.70;;
49460;SDS011;35355;49.198;-0.368;2023-10-19T06:25:15;3.58;;;0.50;;
49460;SDS011;35355;49.198;-0.368;2023-10-19T06:27:43;6.30;;;0.50;;
49460;SDS011;35355;49.198;-0.368;2023-10-19T06:30:14;3.17;;;0.40;;
49460;SDS011;35355;49.198;-0.368;2023-10-19T06:32:50;12.05;;;2.08;;
49460;SDS011;35355;49.198;-0.368;2023-10-19T06:35:17;3.10;;;0.38;;
49460;SDS011;35355;49.198;-0.368;2023-10-19T06:37:43;4.97;;;0.47;;
49460;SDS011;35355;49.198;-0.368;2023-10-19T06:40:09;5.03;;;0.70;;
49460;SDS011;35355;49.198;-0.368;2023-10-19T06:42:37;3.97;;;0.35;;
49460;SDS011;35355;49.198;-0.368;2023-10-19T06:45:03;3.60;;;0.63;;
49460;SDS011;35355;49.198;-0.368;2023-10-19T06:47:29;2.67;;;0.40;;
49460;SDS011;35355;49.198;-0.368;2023-10-19T06:49:55;4.00;;;0.68;;
49460;SDS011;35355;49.198;-0.368;2023-10-19T06:52:21;2.97;;;0.70;;
49460;SDS011;35355;49.198;-0.368;2023-10-19T06:54:47;6.72;;;0.68;;
49460;SDS011;35355;49.198;-0.368;2023-10-19T06:57:12;5.38;;;0.50;;
49460;SDS011;35355;49.198;-0.368;2023-10-19T06:59:38;8.20;;;0.68;;
49460;SDS011;35355;49.198;-0.368;2023-10-19T07:02:04;5.72;;;0.47;;
49460;SDS011;35355;49.198;-0.368;2023-10-19T07:04:29;4.97;;;0.43;;
49460;SDS011;35355;49.198;-0.368;2023-10-19T07:06:55;3.15;;;0.30;;
49460;SDS011;35355;49.198;-0.368;2023-10-19T07:09:22;5.18;;;1.02;;
49460;SDS011;35355;49.198;-0.368;2023-10-19T07:11:48;2.42;;;0.40;;
49460;SDS011;35355;49.198;-0.368;2023-10-19T07:14:18;3.47;;;0.50;;
49460;SDS011;35355;49.198;-0.368;2023-10-19T07:16:44;3.78;;;0.60;;
49460;SDS011;35355;49.198;-0.368;2023-10-19T07:19:09;3.60;;;0.73;;
49460;SDS011;35355;49.198;-0.368;2023-10-19T07:21:35;3.70;;;0.52;;
49460;SDS011;35355;49.198;-0.368;2023-10-19T07:24:08;8.57;;;0.77;;
49460;SDS011;35355;49.198;-0.368;2023-10-19T07:26:36;3.22;;;0.75;;
49460;SDS011;35355;49.198;-0.368;2023-10-19T07:29:16;1.90;;;0.60;;
49460;SDS011;35355;49.198;-0.368;2023-10-19T07:31:42;5.05;;;0.90;;
49460;SDS011;35355;49.198;-0.368;2023-10-19T07:34:07;3.65;;;0.60;;
49460;SDS011;35355;49.198;-0.368;2023-10-19T07:36:37;3.25;;;0.30;;
49460;SDS011;35355;49.198;-0.368;2023-10-19T07:39:03;3.47;;;0.50;;
49460;SDS011;35355;49.198;-0.368;2023-10-19T07:41:32;3.28;;;0.57;;
49460;SDS011;35355;49.198;-0.368;2023-10-19T07:44:01;2.90;;;1.00;;
49460;SDS011;35355;49.198;-0.368;2023-10-19T07:46:27;4.97;;;0.60;;
49460;SDS011;35355;49.198;-0.368;2023-10-19T07:48:54;6.10;;;1.00;;
49460;SDS011;35355;49.198;-0.368;2023-10-19T07:51:19;8.02;;;0.80;;
49460;SDS011;35355;49.198;-0.368;2023-10-19T07:53:45;6.82;;;0.50;;
49460;SDS011;35355;49.198;-0.368;2023-10-19T07:56:10;7.63;;;0.93;;
49460;SDS011;35355;49.198;-0.368;2023-10-19T07:58:36;14.93;;;1.73;;
49460;SDS011;35355;49.198;-0.368;2023-10-19T08:01:02;9.30;;;0.65;;
49460;SDS011;35355;49.198;-0.368;2023-10-19T08:03:27;3.72;;;0.40;;
49460;SDS011;35355;49.198;-0.368;2023-10-19T08:05:53;6.75;;;0.90;;
49460;SDS011;35355;49.198;-0.368;2023-10-19T08:08:22;8.63;;;1.02;;
49460;SDS011;35355;49.198;-0.368;2023-10-19T08:10:50;6.13;;;0.80;;
49460;SDS011;35355;49.198;-0.368;2023-10-19T08:13:16;8.50;;;0.70;;
49460;SDS011;35355;49.198;-0.368;2023-10-19T08:15:42;8.55;;;1.40;;
49460;SDS011;35355;49.198;-0.368;2023-10-19T08:18:07;6.40;;;1.95;;
49460;SDS011;35355;49.198;-0.368;2023-10-19T08:20:32;9.23;;;1.20;;
49460;SDS011;35355;49.198;-0.368;2023-10-19T08:23:02;5.18;;;1.08;;
49460;SDS011;35355;49.198;-0.368;2023-10-19T08:25:30;8.63;;;0.93;;
49460;SDS011;35355;49.198;-0.368;2023-10-19T08:27:55;6.10;;;0.73;;
49460;SDS011;35355;49.198;-0.368;2023-10-19T08:30:24;8.60;;;0.90;;
49460;SDS011;35355;49.198;-0.368;2023-10-19T08:32:50;9.10;;;1.35;;
49460;SDS011;35355;49.198;-0.368;2023-10-19T08:35:18;8.90;;;0.75;;
49460;SDS011;35355;49.198;-0.368;2023-10-19T08:37:54;9.85;;;0.80;;
49460;SDS011;35355;49.198;-0.368;2023-10-19T08:40:22;7.75;;;1.10;;
49460;SDS011;35355;49.198;-0.368;2023-10-19T08:42:51;6.68;;;1.00;;
49460;SDS011;35355;49.198;-0.368;2023-10-19T08:45:18;7.00;;;1.10;;
49460;SDS011;35355;49.198;-0.368;2023-10-19T08:47:56;8.52;;;0.73;;
49460;SDS011;35355;49.198;-0.368;2023-10-19T08:50:25;6.78;;;0.75;;
49460;SDS011;35355;49.198;-0.368;2023-10-19T08:52:55;6.97;;;0.70;;
49460;SDS011;35355;49.198;-0.368;2023-10-19T08:55:24;4.82;;;0.85;;
49460;SDS011;35355;49.198;-0.368;2023-10-19T08:57:51;7.10;;;1.45;;
49460;SDS011;35355;49.198;-0.368;2023-10-19T09:00:20;13.52;;;0.90;;
49460;SDS011;35355;49.198;-0.368;2023-10-19T09:02:53;6.20;;;1.13;;
49460;SDS011;35355;49.198;-0.368;2023-10-19T09:05:21;4.03;;;1.05;;
49460;SDS011;35355;49.198;-0.368;2023-10-19T09:07:51;8.98;;;1.67;;
49460;SDS011;35355;49.198;-0.368;2023-10-19T09:13:03;7.35;;;1.60;;
49460;SDS011;35355;49.198;-0.368;2023-10-19T09:15:33;9.20;;;2.15;;
49460;SDS011;35355;49.198;-0.368;2023-10-19T09:18:15;10.75;;;1.45;;
49460;SDS011;35355;49.198;-0.368;2023-10-19T09:20:43;23.57;;;2.47;;
49460;SDS011;35355;49.198;-0.368;2023-10-19T09:23:23;12.02;;;2.10;;
49460;SDS011;35355;49.198;-0.368;2023-10-19T09:25:55;8.30;;;1.77;;
49460;SDS011;35355;49.198;-0.368;2023-10-19T09:28:22;11.05;;;1.95;;
49460;SDS011;35355;49.198;-0.368;2023-10-19T09:30:53;8.65;;;1.27;;
49460;SDS011;35355;49.198;-0.368;2023-10-19T09:33:20;16.83;;;2.92;;
49460;SDS011;35355;49.198;-0.368;2023-10-19T09:35:48;17.55;;;2.38;;
49460;SDS011;35355;49.198;-0.368;2023-10-19T09:38:19;11.50;;;1.70;;
49460;SDS011;35355;49.198;-0.368;2023-10-19T09:40:48;12.60;;;2.85;;
49460;SDS011;35355;49.198;-0.368;2023-10-19T09:43:15;12.82;;;2.22;;
49460;SDS011;35355;49.198;-0.368;2023-10-19T09:45:48;12.70;;;1.88;;
49460;SDS011;35355;49.198;-0.368;2023-10-19T09:48:19;16.63;;;2.08;;
49460;SDS011;35355;49.198;-0.368;2023-10-19T09:50:45;12.15;;;1.75;;
49460;SDS011;35355;49.198;-0.368;2023-10-19T09:53:20;15.23;;;1.73;;
49460;SDS011;35355;49.198;-0.368;2023-10-19T09:55:54;16.13;;;1.95;;
49460;SDS011;35355;49.198;-0.368;2023-10-19T09:58:31;10.35;;;1.50;;
49460;SDS011;35355;49.198;-0.368;2023-10-19T10:01:02;18.90;;;2.13;;
49460;SDS011;35355;49.198;-0.368;2023-10-19T10:06:56;11.65;;;2.28;;
49460;SDS011;35355;49.198;-0.368;2023-10-19T10:09:19;10.57;;;1.70;;
49460;SDS011;35355;49.198;-0.368;2023-10-19T10:11:48;16.92;;;2.63;;
49460;SDS011;35355;49.198;-0.368;2023-10-19T10:14:26;13.95;;;1.80;;
49460;SDS011;35355;49.198;-0.368;2023-10-19T10:17:01;8.80;;;1.80;;
49460;SDS011;35355;49.198;-0.368;2023-10-19T10:19:34;9.10;;;2.20;;
49460;SDS011;35355;49.198;-0.368;2023-10-19T10:22:04;12.35;;;2.70;;
49460;SDS011;35355;49.198;-0.368;2023-10-19T10:24:46;10.25;;;2.83;;
49460;SDS011;35355;49.198;-0.368;2023-10-19T10:27:13;15.85;;;3.90;;
49460;SDS011;35355;49.198;-0.368;2023-10-19T10:29:58;16.83;;;2.38;;
49460;SDS011;35355;49.198;-0.368;2023-10-19T10:32:42;23.65;;;2.80;;
49460;SDS011;35355;49.198;-0.368;2023-10-19T10:35:11;15.32;;;2.03;;
49460;SDS011;35355;49.198;-0.368;2023-10-19T10:38:07;14.95;;;2.63;;
49460;SDS011;35355;49.198;-0.368;2023-10-19T10:40:45;14.00;;;2.15;;
49460;SDS011;35355;49.198;-0.368;2023-10-19T10:43:18;15.55;;;2.85;;
49460;SDS011;35355;49.198;-0.368;2023-10-19T10:45:44;12.68;;;1.95;;
49460;SDS011;35355;49.198;-0.368;2023-10-19T10:48:18;15.25;;;2.20;;
49460;SDS011;35355;49.198;-0.368;2023-10-19T10:50:44;13.25;;;1.92;;
49460;SDS011;35355;49.198;-0.368;2023-10-19T10:53:11;12.95;;;1.80;;
49460;SDS011;35355;49.198;-0.368;2023-10-19T10:55:36;17.85;;;2.38;;
49460;SDS011;35355;49.198;-0.368;2023-10-19T10:58:02;14.73;;;2.45;;
49460;SDS011;35355;49.198;-0.368;2023-10-19T11:00:28;21.40;;;2.40;;
49460;SDS011;35355;49.198;-0.368;2023-10-19T11:03:02;12.77;;;2.05;;
49460;SDS011;35355;49.198;-0.368;2023-10-19T11:05:32;16.60;;;3.25;;
49460;SDS011;35355;49.198;-0.368;2023-10-19T11:08:10;12.35;;;3.17;;
49460;SDS011;35355;49.198;-0.368;2023-10-19T11:10:40;12.90;;;3.38;;
49460;SDS011;35355;49.198;-0.368;2023-10-19T11:13:08;12.38;;;2.22;;
49460;SDS011;35355;49.198;-0.368;2023-10-19T11:15:36;16.65;;;2.95;;
49460;SDS011;35355;49.198;-0.368;2023-10-19T11:18:02;10.88;;;2.58;;
49460;SDS011;35355;49.198;-0.368;2023-10-19T11:20:29;11.35;;;1.75;;
49460;SDS011;35355;49.198;-0.368;2023-10-19T11:23:00;10.52;;;1.70;;
49460;SDS011;35355;49.198;-0.368;2023-10-19T11:25:29;7.10;;;1.58;;
49460;SDS011;35355;49.198;-0.368;2023-10-19T11:28:00;14.85;;;3.20;;
49460;SDS011;35355;49.198;-0.368;2023-10-19T11:30:30;8.95;;;1.50;;
49460;SDS011;35355;49.198;-0.368;2023-10-19T11:32:57;16.52;;;1.92;;
49460;SDS011;35355;49.198;-0.368;2023-10-19T11:35:28;16.10;;;2.28;;
49460;SDS011;35355;49.198;-0.368;2023-10-19T11:37:56;14.52;;;1.85;;
49460;SDS011;35355;49.198;-0.368;2023-10-19T11:40:25;15.40;;;1.80;;
49460;SDS011;35355;49.198;-0.368;2023-10-19T11:42:52;15.80;;;2.17;;
49460;SDS011;35355;49.198;-0.368;2023-10-19T11:45:21;12.05;;;1.85;;
49460;SDS011;35355;49.198;-0.368;2023-10-19T11:47:48;15.93;;;2.85;;
49460;SDS011;35355;49.198;-0.368;2023-10-19T11:50:15;13.07;;;2.67;;
49460;SDS011;35355;49.198;-0.368;2023-10-19T11:52:43;12.88;;;2.13;;
49460;SDS011;35355;49.198;-0.368;2023-10-19T11:55:08;9.32;;;1.83;;
49460;SDS011;35355;49.198;-0.368;2023-10-19T11:57:34;13.32;;;1.35;;
49460;SDS011;35355;49.198;-0.368;2023-10-19T12:00:06;9.80;;;1.88;;
49460;SDS011;35355;49.198;-0.368;2023-10-19T12:02:38;16.48;;;2.42;;
49460;SDS011;35355;49.198;-0.368;2023-10-19T12:05:06;7.13;;;1.60;;
49460;SDS011;35355;49.198;-0.368;2023-10-19T12:07:38;15.13;;;2.33;;
49460;SDS011;35355;49.198;-0.368;2023-10-19T12:10:08;9.18;;;1.58;;
49460;SDS011;35355;49.198;-0.368;2023-10-19T12:12:35;7.82;;;1.60;;
49460;SDS011;35355;49.198;-0.368;2023-10-19T12:15:01;12.88;;;2.53;;
49460;SDS011;35355;49.198;-0.368;2023-10-19T12:17:27;14.07;;;2.25;;
49460;SDS011;35355;49.198;-0.368;2023-10-19T12:19:55;6.60;;;1.27;;
49460;SDS011;35355;49.198;-0.368;2023-10-19T12:22:20;12.38;;;2.22;;
49460;SDS011;35355;49.198;-0.368;2023-10-19T12:24:46;14.40;;;1.90;;
49460;SDS011;35355;49.198;-0.368;2023-10-19T12:27:13;12.95;;;1.88;;
49460;SDS011;35355;49.198;-0.368;2023-10-19T12:29:39;8.50;;;2.10;;
49460;SDS011;35355;49.198;-0.368;2023-10-19T12:32:05;13.85;;;1.50;;
49460;SDS011;35355;49.198;-0.368;2023-10-19T12:34:31;17.65;;;1.95;;
49460;SDS011;35355;49.198;-0.368;2023-10-19T12:36:56;12.82;;;1.45;;
49460;SDS011;35355;49.198;-0.368;2023-10-19T12:39:23;11.82;;;2.72;;
49460;SDS011;35355;49.198;-0.368;2023-10-19T12:42:08;14.65;;;3.28;;
49460;SDS011;35355;49.198;-0.368;2023-10-19T12:44:34;12.93;;;1.75;;
49460;SDS011;35355;49.198;-0.368;2023-10-19T12:47:09;14.38;;;1.80;;
49460;SDS011;35355;49.198;-0.368;2023-10-19T12:49:38;12.82;;;1.95;;
49460;SDS011;35355;49.198;-0.368;2023-10-19T12:52:07;17.50;;;2.53;;
49460;SDS011;35355;49.198;-0.368;2023-10-19T12:54:34;15.48;;;2.25;;
49460;SDS011;35355;49.198;-0.368;2023-10-19T12:57:00;14.90;;;2.00;;
49460;SDS011;35355;49.198;-0.368;2023-10-19T12:59:28;14.70;;;2.25;;
49460;SDS011;35355;49.198;-0.368;2023-10-19T13:01:54;11.98;;;2.50;;
49460;SDS011;35355;49.198;-0.368;2023-10-19T13:04:23;13.45;;;2.10;;
49460;SDS011;35355;49.198;-0.368;2023-10-19T13:06:51;15.07;;;2.88;;
49460;SDS011;35355;49.198;-0.368;2023-10-19T13:09:17;13.63;;;2.22;;
49460;SDS011;35355;49.198;-0.368;2023-10-19T13:11:55;13.00;;;1.98;;
49460;SDS011;35355;49.198;-0.368;2023-10-19T13:14:22;17.58;;;2.40;;
49460;SDS011;35355;49.198;-0.368;2023-10-19T13:16:51;14.25;;;2.92;;
49460;SDS011;35355;49.198;-0.368;2023-10-19T13:19:17;15.52;;;1.90;;
49460;SDS011;35355;49.198;-0.368;2023-10-19T13:21:47;18.17;;;3.40;;
49460;SDS011;35355;49.198;-0.368;2023-10-19T13:24:14;15.18;;;2.75;;
49460;SDS011;35355;49.198;-0.368;2023-10-19T13:26:41;20.83;;;3.47;;
49460;SDS011;35355;49.198;-0.368;2023-10-19T13:29:11;19.33;;;2.30;;
49460;SDS011;35355;49.198;-0.368;2023-10-19T13:31:36;18.75;;;2.53;;
49460;SDS011;35355;49.198;-0.368;2023-10-19T13:34:02;19.08;;;2.58;;
49460;SDS011;35355;49.198;-0.368;2023-10-19T13:36:29;18.33;;;2.72;;
49460;SDS011;35355;49.198;-0.368;2023-10-19T13:38:57;18.98;;;2.55;;
49460;SDS011;35355;49.198;-0.368;2023-10-19T13:41:25;15.20;;;2.75;;
49460;SDS011;35355;49.198;-0.368;2023-10-19T13:43:50;14.18;;;2.40;;
49460;SDS011;35355;49.198;-0.368;2023-10-19T13:46:16;12.77;;;2.65;;
49460;SDS011;35355;49.198;-0.368;2023-10-19T13:48:42;14.30;;;2.47;;
49460;SDS011;35355;49.198;-0.368;2023-10-19T13:51:07;16.48;;;2.35;;
49460;SDS011;35355;49.198;-0.368;2023-10-19T13:53:40;17.73;;;3.45;;
49460;SDS011;35355;49.198;-0.368;2023-10-19T13:56:09;20.65;;;2.78;;
49460;SDS011;35355;49.198;-0.368;2023-10-19T13:58:35;13.98;;;2.67;;
49460;SDS011;35355;49.198;-0.368;2023-10-19T14:01:01;23.10;;;2.28;;
49460;SDS011;35355;49.198;-0.368;2023-10-19T14:03:28;18.27;;;2.35;;
49460;SDS011;35355;49.198;-0.368;2023-10-19T14:05:55;12.65;;;2.20;;
49460;SDS011;35355;49.198;-0.368;2023-10-19T14:08:21;16.67;;;3.10;;
49460;SDS011;35355;49.198;-0.368;2023-10-19T14:10:47;12.52;;;1.52;;
49460;SDS011;35355;49.198;-0.368;2023-10-19T14:13:12;14.43;;;1.83;;
49460;SDS011;35355;49.198;-0.368;2023-10-19T14:15:39;14.65;;;3.00;;
49460;SDS011;35355;49.198;-0.368;2023-10-19T14:18:05;13.35;;;1.77;;
49460;SDS011;35355;49.198;-0.368;2023-10-19T14:20:34;8.32;;;1.77;;
49460;SDS011;35355;49.198;-0.368;2023-10-19T14:23:00;9.43;;;2.10;;
49460;SDS011;35355;49.198;-0.368;2023-10-19T14:25:29;9.55;;;2.55;;
49460;SDS011;35355;49.198;-0.368;2023-10-19T14:27:55;11.98;;;1.95;;
49460;SDS011;35355;49.198;-0.368;2023-10-19T14:30:25;7.43;;;1.05;;
49460;SDS011;35355;49.198;-0.368;2023-10-19T14:32:53;13.27;;;2.70;;
49460;SDS011;35355;49.198;-0.368;2023-10-19T14:35:19;4.70;;;0.88;;
49460;SDS011;35355;49.198;-0.368;2023-10-19T14:37:46;8.93;;;1.23;;
49460;SDS011;35355;49.198;-0.368;2023-10-19T14:40:14;10.65;;;1.27;;
49460;SDS011;35355;49.198;-0.368;2023-10-19T14:42:41;9.98;;;1.00;;
49460;SDS011;35355;49.198;-0.368;2023-10-19T14:45:08;10.38;;;0.80;;